createdAt,value
2019-06-28T00:00:50.017Z,0.00
2019-06-28T00:01:51.462Z,0.00
2019-06-28T00:02:49.983Z,0.00
2019-06-28T00:03:50.019Z,0.00
2019-06-28T00:04:49.945Z,0.00
2019-06-28T00:05:49.988Z,0.00
2019-06-28T00:06:49.964Z,0.00
2019-06-28T00:07:49.893Z,0.00
2019-06-28T00:08:49.931Z,0.00
2019-06-28T00:10:50.200Z,0.00
2019-06-28T00:11:49.881Z,0.00
2019-06-28T00:12:49.864Z,0.00
2019-06-28T00:13:49.807Z,0.00
2019-06-28T00:14:49.846Z,0.00
2019-06-28T00:15:49.832Z,0.00
2019-06-28T00:16:49.733Z,0.00
2019-06-28T00:19:49.734Z,0.00
2019-06-28T00:20:49.683Z,0.00
2019-06-28T00:21:49.696Z,0.00
2019-06-28T00:25:49.912Z,0.00
2019-06-28T00:26:49.553Z,0.00
2019-06-28T00:27:49.545Z,0.00
2019-06-28T00:29:49.518Z,0.00
2019-06-28T00:31:49.828Z,0.00
2019-06-28T00:33:49.442Z,0.00
2019-06-28T00:34:49.437Z,0.00
2019-06-28T00:35:49.403Z,0.00
2019-06-28T00:36:49.396Z,0.00
2019-06-28T00:37:49.371Z,0.00
2019-06-28T00:38:49.399Z,0.00
2019-06-28T00:39:49.344Z,0.00
2019-06-28T00:40:53.063Z,0.00
2019-06-28T00:41:49.355Z,0.00
2019-06-28T00:42:49.295Z,0.00
2019-06-28T00:43:49.285Z,0.00
2019-06-28T00:44:49.303Z,0.00
2019-06-28T00:45:49.258Z,0.00
2019-06-28T00:46:49.221Z,0.00
2019-06-28T00:47:49.249Z,0.00
2019-06-28T00:48:49.241Z,0.00
2019-06-28T00:49:49.178Z,0.00
2019-06-28T00:50:49.178Z,0.00
2019-06-28T00:51:49.277Z,0.00
2019-06-28T00:52:49.222Z,0.00
2019-06-28T00:53:49.109Z,0.00
2019-06-28T00:54:49.104Z,0.00
2019-06-28T00:55:49.081Z,0.00
2019-06-28T00:56:49.078Z,0.00
2019-06-28T00:57:49.047Z,0.00
2019-06-28T00:58:49.027Z,0.00
2019-06-28T00:59:49.025Z,0.00
2019-06-28T01:00:49.001Z,0.00
2019-06-28T01:01:48.987Z,0.00
2019-06-28T01:02:48.967Z,0.00
2019-06-28T01:03:48.950Z,0.00
2019-06-28T01:04:48.936Z,0.00
2019-06-28T01:05:48.910Z,0.00
2019-06-28T01:06:48.897Z,0.00
2019-06-28T01:08:48.860Z,0.00
2019-06-28T01:09:48.852Z,0.00
2019-06-28T01:10:48.857Z,0.00
2019-06-28T01:11:48.817Z,0.00
2019-06-28T01:12:55.010Z,0.00
2019-06-28T01:13:48.792Z,0.00
2019-06-28T01:14:48.773Z,0.00
2019-06-28T01:15:48.788Z,0.00
2019-06-28T01:16:48.735Z,0.00
2019-06-28T01:17:48.715Z,0.00
2019-06-28T01:18:48.703Z,0.00
2019-06-28T01:19:48.686Z,0.00
2019-06-28T01:20:48.677Z,0.00
2019-06-28T01:21:48.803Z,0.00
2019-06-28T01:22:48.638Z,0.00
2019-06-28T01:23:48.620Z,0.00
2019-06-28T01:24:48.603Z,0.00
2019-06-28T01:25:48.582Z,0.00
2019-06-28T01:26:48.575Z,0.00
2019-06-28T01:27:48.553Z,0.00
2019-06-28T01:28:48.550Z,0.00
2019-06-28T01:29:48.518Z,0.00
2019-06-28T01:31:48.489Z,0.00
2019-06-28T01:32:48.583Z,0.00
2019-06-28T01:34:48.552Z,0.00
2019-06-28T01:35:48.634Z,0.00
2019-06-28T01:36:48.438Z,0.00
2019-06-28T01:37:48.394Z,0.00
2019-06-28T01:38:48.373Z,0.00
2019-06-28T01:39:48.375Z,0.00
2019-06-28T01:40:48.435Z,0.00
2019-06-28T01:41:48.332Z,0.00
2019-06-28T01:42:48.363Z,0.00
2019-06-28T01:43:48.312Z,0.00
2019-06-28T01:44:48.320Z,0.00
2019-06-28T01:45:48.257Z,0.00
2019-06-28T01:46:48.237Z,0.00
2019-06-28T01:48:48.510Z,0.00
2019-06-28T01:49:48.204Z,0.00
2019-06-28T01:50:48.381Z,0.00
2019-06-28T01:51:48.177Z,0.00
2019-06-28T01:52:48.441Z,0.00
2019-06-28T01:53:48.135Z,0.00
2019-06-28T01:54:48.108Z,0.00
2019-06-28T01:55:48.097Z,0.00
2019-06-28T01:56:48.076Z,0.00
2019-06-28T01:57:48.071Z,0.00
2019-06-28T01:58:48.046Z,0.00
2019-06-28T01:59:48.027Z,0.00
2019-06-28T02:00:48.029Z,0.00
2019-06-28T02:01:48.041Z,0.00
2019-06-28T02:02:48.042Z,0.00
2019-06-28T02:03:47.964Z,0.00
2019-06-28T02:04:48.112Z,0.00
2019-06-28T02:05:47.930Z,0.00
2019-06-28T02:06:47.961Z,0.00
2019-06-28T02:07:47.902Z,0.00
2019-06-28T02:08:48.000Z,0.00
2019-06-28T02:09:47.868Z,0.00
2019-06-28T02:13:47.863Z,0.00
2019-06-28T02:14:48.039Z,0.00
2019-06-28T02:15:48.056Z,0.00
2019-06-28T02:16:47.752Z,0.00
2019-06-28T02:17:47.740Z,0.00
2019-06-28T02:18:47.722Z,0.00
2019-06-28T02:19:48.985Z,0.00
2019-06-28T02:20:47.689Z,0.00
2019-06-28T02:22:47.654Z,4.00
2019-06-28T02:23:47.640Z,4.00
2019-06-28T02:24:47.623Z,4.00
2019-06-28T02:25:47.604Z,0.00
2019-06-28T02:26:47.587Z,0.00
2019-06-28T02:27:47.570Z,0.00
2019-06-28T02:28:48.052Z,4.00
2019-06-28T02:29:50.817Z,4.00
2019-06-28T02:30:47.558Z,4.00
2019-06-28T02:31:47.522Z,0.00
2019-06-28T02:33:47.778Z,4.00
2019-06-28T02:34:47.510Z,0.00
2019-06-28T02:35:47.445Z,4.00
2019-06-28T02:36:47.529Z,8.00
2019-06-28T02:37:47.414Z,4.00
2019-06-28T02:38:47.419Z,8.00
2019-06-28T02:39:47.385Z,8.00
2019-06-28T02:40:47.363Z,8.00
2019-06-28T02:42:04.368Z,12.00
2019-06-28T02:42:47.325Z,12.00
2019-06-28T02:43:47.337Z,12.00
2019-06-28T02:44:47.294Z,16.00
2019-06-28T02:45:47.301Z,16.00
2019-06-28T02:46:47.271Z,16.00
2019-06-28T02:47:47.281Z,16.00
2019-06-28T02:49:47.413Z,16.00
2019-06-28T02:50:47.252Z,20.00
2019-06-28T02:51:47.198Z,24.00
2019-06-28T02:52:47.440Z,24.00
2019-06-28T02:54:47.306Z,24.00
2019-06-28T02:55:47.262Z,28.00
2019-06-28T02:56:47.122Z,28.00
2019-06-28T02:57:47.144Z,36.00
2019-06-28T02:58:47.083Z,36.00
2019-06-28T02:59:47.057Z,36.00
2019-06-28T03:00:47.039Z,40.00
2019-06-28T03:01:47.026Z,44.00
2019-06-28T03:02:47.003Z,52.00
2019-06-28T03:03:46.991Z,48.00
2019-06-28T03:04:46.986Z,48.00
2019-06-28T03:05:46.964Z,48.00
2019-06-28T03:06:46.954Z,52.00
2019-06-28T03:07:46.978Z,56.00
2019-06-28T03:08:46.928Z,60.00
2019-06-28T03:09:46.888Z,60.00
2019-06-28T03:10:46.884Z,64.00
2019-06-28T03:11:46.872Z,68.00
2019-06-28T03:12:46.855Z,68.00
2019-06-28T03:13:46.825Z,72.00
2019-06-28T03:14:46.811Z,76.00
2019-06-28T03:15:46.811Z,76.00
2019-06-28T03:16:46.785Z,80.00
2019-06-28T03:17:46.780Z,80.00
2019-06-28T03:19:47.183Z,84.00
2019-06-28T03:20:46.719Z,92.00
2019-06-28T03:21:46.797Z,100.00
2019-06-28T03:22:46.683Z,104.00
2019-06-28T03:23:46.670Z,104.00
2019-06-28T03:24:46.708Z,108.00
2019-06-28T03:25:46.636Z,116.00
2019-06-28T03:26:46.634Z,128.00
2019-06-28T03:28:46.589Z,136.00
2019-06-28T03:30:46.598Z,148.00
2019-06-28T03:31:46.698Z,160.00
2019-06-28T03:33:46.556Z,152.00
2019-06-28T03:34:46.513Z,156.00
2019-06-28T03:35:46.616Z,172.00
2019-06-28T03:37:46.921Z,180.00
2019-06-28T03:38:46.443Z,184.00
2019-06-28T03:40:46.404Z,200.00
2019-06-28T03:41:46.589Z,212.00
2019-06-28T03:42:49.358Z,220.00
2019-06-28T03:43:46.351Z,208.00
2019-06-28T03:44:46.336Z,236.00
2019-06-28T03:45:46.320Z,236.00
2019-06-28T03:46:46.312Z,236.00
2019-06-28T03:47:46.384Z,224.00
2019-06-28T03:48:46.272Z,224.00
2019-06-28T03:49:46.253Z,232.00
2019-06-28T03:51:46.222Z,232.00
2019-06-28T03:52:46.205Z,272.00
2019-06-28T03:55:47.283Z,308.00
2019-06-28T03:56:47.858Z,308.00
2019-06-28T03:57:46.135Z,316.00
2019-06-28T03:58:46.215Z,324.00
2019-06-28T03:59:46.098Z,336.00
2019-06-28T04:00:46.079Z,348.00
2019-06-28T04:02:46.044Z,364.00
2019-06-28T04:03:46.031Z,380.00
2019-06-28T04:04:46.028Z,400.00
2019-06-28T04:05:46.153Z,464.00
2019-06-28T04:06:45.984Z,532.00
2019-06-28T04:07:45.965Z,520.00
2019-06-28T04:08:45.951Z,508.00
2019-06-28T04:09:45.943Z,480.00
2019-06-28T04:10:45.915Z,444.00
2019-06-28T04:11:45.903Z,452.00
2019-06-28T04:12:45.883Z,444.00
2019-06-28T04:13:45.903Z,440.00
2019-06-28T04:14:45.856Z,444.00
2019-06-28T04:15:45.842Z,460.00
2019-06-28T04:16:45.824Z,472.00
2019-06-28T04:18:45.794Z,572.00
2019-06-28T04:19:45.774Z,624.00
2019-06-28T04:20:45.759Z,640.00
2019-06-28T04:21:46.697Z,620.00
2019-06-28T04:23:46.568Z,580.00
2019-06-28T04:24:45.735Z,596.00
2019-06-28T04:25:45.797Z,628.00
2019-06-28T04:26:45.747Z,640.00
2019-06-28T04:27:45.749Z,664.00
2019-06-28T04:28:45.631Z,664.00
2019-06-28T04:29:45.665Z,668.00
2019-06-28T04:30:45.649Z,732.00
2019-06-28T04:31:45.689Z,760.00
2019-06-28T04:32:45.565Z,788.00
2019-06-28T04:33:45.549Z,788.00
2019-06-28T04:34:45.546Z,724.00
2019-06-28T04:35:45.720Z,692.00
2019-06-28T04:36:45.539Z,704.00
2019-06-28T04:37:45.647Z,700.00
2019-06-28T04:38:45.473Z,724.00
2019-06-28T04:39:45.508Z,752.00
2019-06-28T04:40:45.876Z,760.00
2019-06-28T04:41:45.420Z,764.00
2019-06-28T04:42:45.405Z,788.00
2019-06-28T04:43:45.764Z,840.00
2019-06-28T04:44:45.375Z,876.00
2019-06-28T04:45:45.359Z,908.00
2019-06-28T04:46:45.347Z,856.00
2019-06-28T04:49:46.043Z,828.00
2019-06-28T04:50:47.226Z,868.00
2019-06-28T04:51:45.360Z,868.00
2019-06-28T04:52:45.405Z,820.00
2019-06-28T04:53:45.634Z,796.00
2019-06-28T04:54:45.299Z,824.00
2019-06-28T04:56:45.181Z,960.00
2019-06-28T04:59:45.145Z,1064.00
2019-06-28T05:01:45.403Z,1060.00
2019-06-28T05:02:45.105Z,1016.00
2019-06-28T05:03:45.345Z,996.00
2019-06-28T05:04:45.215Z,1072.00
2019-06-28T05:05:45.051Z,1196.00
2019-06-28T05:06:45.041Z,1496.00
2019-06-28T05:07:45.015Z,1496.00
2019-06-28T05:08:44.999Z,1444.00
2019-06-28T05:09:44.982Z,1348.00
2019-06-28T05:10:44.958Z,1308.00
2019-06-28T05:11:44.952Z,1232.00
2019-06-28T05:12:44.934Z,1152.00
2019-06-28T05:13:45.017Z,1092.00
2019-06-28T05:14:44.893Z,1048.00
2019-06-28T05:15:44.896Z,1056.00
2019-06-28T05:17:45.378Z,1116.00
2019-06-28T05:18:44.851Z,1236.00
2019-06-28T05:19:44.829Z,1348.00
2019-06-28T05:20:44.956Z,1388.00
2019-06-28T05:21:47.909Z,1416.00
2019-06-28T05:22:45.551Z,1412.00
2019-06-28T05:23:44.855Z,1340.00
2019-06-28T05:26:44.832Z,1076.00
2019-06-28T05:27:44.820Z,1120.00
2019-06-28T05:28:44.676Z,1184.00
2019-06-28T05:29:45.636Z,1228.00
2019-06-28T05:30:45.221Z,1416.00
2019-06-28T05:31:44.748Z,1472.00
2019-06-28T05:32:45.354Z,1456.00
2019-06-28T05:34:45.328Z,1340.00
2019-06-28T05:36:44.540Z,1372.00
2019-06-28T05:37:44.533Z,1396.00
2019-06-28T05:38:52.197Z,1472.00
2019-06-28T05:39:44.535Z,1560.00
2019-06-28T05:40:46.700Z,1592.00
2019-06-28T05:41:44.923Z,1512.00
2019-06-28T05:42:44.460Z,1696.00
2019-06-28T05:43:53.525Z,1816.00
2019-06-28T05:44:44.491Z,2032.00
2019-06-28T05:45:44.405Z,2100.00
2019-06-28T05:46:44.491Z,2104.00
2019-06-28T05:49:44.358Z,1856.00
2019-06-28T05:50:44.388Z,2028.00
2019-06-28T05:51:44.322Z,2264.00
2019-06-28T05:52:44.302Z,2368.00
2019-06-28T05:53:46.030Z,2348.00
2019-06-28T05:54:44.267Z,2316.00
2019-06-28T05:55:44.356Z,2284.00
2019-06-28T05:57:44.219Z,2340.00
2019-06-28T05:58:44.205Z,2384.00
2019-06-28T05:59:46.165Z,2452.00
2019-06-28T06:00:54.664Z,2264.00
2019-06-28T06:01:44.263Z,2380.00
2019-06-28T06:02:44.192Z,2480.00
2019-06-28T06:03:44.151Z,2564.00
2019-06-28T06:05:44.130Z,2920.00
2019-06-28T06:06:44.733Z,2844.00
2019-06-28T06:07:44.177Z,2808.00
2019-06-28T06:08:44.807Z,2740.00
2019-06-28T06:09:44.055Z,2980.00
2019-06-28T06:11:44.026Z,2828.00
2019-06-28T06:12:43.995Z,2748.00
2019-06-28T06:13:44.026Z,2932.00
2019-06-28T06:14:44.040Z,2904.00
2019-06-28T06:15:43.973Z,3032.00
2019-06-28T06:16:44.967Z,2996.00
2019-06-28T06:17:43.909Z,2912.00
2019-06-28T06:18:43.931Z,2940.00
2019-06-28T06:19:43.886Z,3292.00
2019-06-28T06:20:43.861Z,3368.00
2019-06-28T06:21:44.020Z,3392.00
2019-06-28T06:22:43.869Z,3120.00
2019-06-28T06:23:43.827Z,3000.00
2019-06-28T06:24:44.034Z,3076.00
2019-06-28T06:25:43.805Z,3104.00
2019-06-28T06:26:43.785Z,3244.00
2019-06-28T06:27:43.767Z,3248.00
2019-06-28T06:28:43.756Z,3132.00
2019-06-28T06:29:43.779Z,3244.00
2019-06-28T06:30:43.723Z,3212.00
2019-06-28T06:31:43.703Z,3164.00
2019-06-28T06:32:43.685Z,3224.00
2019-06-28T06:33:43.777Z,3296.00
2019-06-28T06:34:43.678Z,3248.00
2019-06-28T06:35:43.664Z,3160.00
2019-06-28T06:36:43.977Z,3352.00
2019-06-28T06:37:43.606Z,3524.00
2019-06-28T06:38:43.598Z,3412.00
2019-06-28T06:39:43.890Z,3388.00
2019-06-28T06:40:43.579Z,3448.00
2019-06-28T06:41:43.550Z,3424.00
2019-06-28T06:44:43.502Z,3720.00
2019-06-28T06:45:43.558Z,3428.00
2019-06-28T06:46:43.480Z,3140.00
2019-06-28T06:48:43.447Z,3692.00
2019-06-28T06:50:43.435Z,3820.00
2019-06-28T06:56:43.339Z,4088.00
2019-06-28T06:57:43.330Z,4352.00
2019-06-28T06:58:43.295Z,4248.00
2019-06-28T06:59:43.288Z,4516.00
2019-06-28T07:00:43.278Z,4284.00
2019-06-28T07:01:44.265Z,3884.00
2019-06-28T07:02:43.850Z,3896.00
2019-06-28T07:03:44.260Z,3716.00
2019-06-28T07:04:44.012Z,3648.00
2019-06-28T07:05:44.100Z,3720.00
2019-06-28T07:06:44.082Z,3820.00
2019-06-28T07:07:43.950Z,3908.00
2019-06-28T07:08:44.358Z,3728.00
2019-06-28T07:09:43.151Z,4088.00
2019-06-28T07:10:43.130Z,4576.00
2019-06-28T07:11:43.784Z,5212.00
2019-06-28T07:12:43.680Z,5188.00
2019-06-28T07:13:43.083Z,5140.00
2019-06-28T07:15:44.919Z,5272.00
2019-06-28T07:16:43.533Z,5304.00
2019-06-28T07:19:44.257Z,5412.00
2019-06-28T07:20:45.010Z,5844.00
2019-06-28T07:21:43.054Z,5696.00
2019-06-28T07:22:43.060Z,5440.00
2019-06-28T07:23:43.075Z,5056.00
2019-06-28T07:24:42.922Z,4952.00
2019-06-28T07:25:42.927Z,4844.00
2019-06-28T07:26:42.910Z,5612.00
2019-06-28T07:27:42.893Z,6172.00
2019-06-28T07:29:43.151Z,4620.00
2019-06-28T07:30:43.273Z,5268.00
2019-06-28T07:32:43.224Z,5424.00
2019-06-28T07:33:42.804Z,5588.00
2019-06-28T07:34:42.787Z,4436.00
2019-06-28T07:35:42.865Z,5372.00
2019-06-28T07:36:42.770Z,5328.00
2019-06-28T07:37:42.803Z,6096.00
2019-06-28T07:38:51.894Z,6680.00
2019-06-28T07:39:43.117Z,6268.00
2019-06-28T07:40:42.709Z,5672.00
2019-06-28T07:41:42.898Z,5436.00
2019-06-28T07:42:42.685Z,5392.00
2019-06-28T07:43:42.744Z,5452.00
2019-06-28T07:44:42.650Z,5216.00
2019-06-28T07:45:42.676Z,5140.00
2019-06-28T07:46:42.642Z,5928.00
2019-06-28T07:47:42.652Z,6116.00
2019-06-28T07:48:44.824Z,6316.00
2019-06-28T07:49:42.635Z,7336.00
2019-06-28T07:50:44.327Z,7088.00
2019-06-28T07:52:42.550Z,5804.00
2019-06-28T07:53:42.538Z,5484.00
2019-06-28T07:54:42.528Z,5400.00
2019-06-28T07:56:42.534Z,5976.00
2019-06-28T07:57:42.491Z,6180.00
2019-06-28T07:58:42.612Z,5988.00
2019-06-28T07:59:42.512Z,6204.00
2019-06-28T08:00:42.495Z,7184.00
2019-06-28T08:01:42.532Z,6732.00
2019-06-28T08:02:42.423Z,6196.00
2019-06-28T08:03:42.417Z,5504.00
2019-06-28T08:04:42.659Z,5968.00
2019-06-28T08:05:42.401Z,6452.00
2019-06-28T08:06:42.381Z,6432.00
2019-06-28T08:08:42.393Z,7068.00
2019-06-28T08:09:42.368Z,7032.00
2019-06-28T08:10:43.645Z,6908.00
2019-06-28T08:11:42.634Z,6232.00
2019-06-28T08:12:42.492Z,5924.00
2019-06-28T08:13:42.295Z,6028.00
2019-06-28T08:14:42.495Z,6596.00
2019-06-28T08:15:42.897Z,6152.00
2019-06-28T08:16:42.280Z,5572.00
2019-06-28T08:17:42.784Z,5096.00
2019-06-28T08:18:45.031Z,5156.00
2019-06-28T08:19:42.434Z,5200.00
2019-06-28T08:20:42.313Z,5456.00
2019-06-28T08:21:46.070Z,6080.00
2019-06-28T08:24:42.293Z,6328.00
2019-06-28T08:26:42.171Z,6188.00
2019-06-28T08:27:42.135Z,5840.00
2019-06-28T08:28:42.131Z,5572.00
2019-06-28T08:29:42.148Z,5368.00
2019-06-28T08:30:42.106Z,5028.00
2019-06-28T08:31:42.139Z,4828.00
2019-06-28T08:34:42.545Z,4460.00
2019-06-28T08:35:42.061Z,4436.00
2019-06-28T08:36:42.031Z,4520.00
2019-06-28T08:37:42.019Z,4392.00
2019-06-28T08:38:42.030Z,4352.00
2019-06-28T08:39:42.027Z,4004.00
2019-06-28T08:40:41.976Z,4196.00
2019-06-28T08:41:41.974Z,5192.00
2019-06-28T08:42:41.956Z,5732.00
2019-06-28T08:43:42.001Z,6508.00
2019-06-28T08:44:41.978Z,6036.00
2019-06-28T08:45:42.028Z,5868.00
2019-06-28T08:46:41.913Z,5676.00
2019-06-28T08:47:41.898Z,5508.00
2019-06-28T08:48:41.945Z,5552.00
2019-06-28T08:49:41.911Z,4948.00
2019-06-28T08:50:41.886Z,4228.00
2019-06-28T08:51:41.859Z,3992.00
2019-06-28T08:52:41.856Z,4088.00
2019-06-28T08:53:41.858Z,3488.00
2019-06-28T08:54:41.962Z,5632.00
2019-06-28T08:55:45.530Z,6288.00
2019-06-28T08:56:41.782Z,6720.00
2019-06-28T08:59:19.626Z,8444.00
2019-06-28T08:59:41.812Z,8900.00
2019-06-28T09:00:41.856Z,8064.00
2019-06-28T09:02:41.719Z,6164.00
2019-06-28T09:04:41.739Z,7056.00
2019-06-28T09:05:41.940Z,7088.00
2019-06-28T09:06:41.740Z,7548.00
2019-06-28T09:07:41.653Z,6288.00
2019-06-28T09:08:41.649Z,6032.00
2019-06-28T09:09:41.642Z,6036.00
2019-06-28T09:10:41.632Z,6512.00
2019-06-28T09:11:41.759Z,7292.00
2019-06-28T09:13:41.611Z,10216.00
2019-06-28T09:14:41.596Z,11168.00
2019-06-28T09:15:51.169Z,9264.00
2019-06-28T09:16:41.735Z,8792.00
2019-06-28T09:17:41.803Z,8732.00
2019-06-28T09:18:41.643Z,9196.00
2019-06-28T09:19:41.614Z,8920.00
2019-06-28T09:20:41.735Z,11264.00
2019-06-28T09:21:41.619Z,9420.00
2019-06-28T09:22:41.527Z,8368.00
2019-06-28T09:24:41.565Z,8272.00
2019-06-28T09:25:41.509Z,8156.00
2019-06-28T09:26:41.561Z,8132.00
2019-06-28T09:27:41.664Z,8420.00
2019-06-28T09:28:41.860Z,8520.00
2019-06-28T09:29:41.436Z,8332.00
2019-06-28T09:30:41.840Z,7592.00
2019-06-28T09:31:41.433Z,7864.00
2019-06-28T09:32:42.730Z,7920.00
2019-06-28T09:33:41.473Z,7692.00
2019-06-28T09:34:41.386Z,7496.00
2019-06-28T09:35:41.395Z,7056.00
2019-06-28T09:37:41.391Z,5992.00
2019-06-28T09:38:41.361Z,5400.00
2019-06-28T09:40:41.900Z,4596.00
2019-06-28T09:41:41.656Z,5640.00
2019-06-28T09:44:41.446Z,4300.00
2019-06-28T09:45:41.401Z,4204.00
2019-06-28T09:46:41.349Z,4188.00
2019-06-28T09:47:41.903Z,4240.00
2019-06-28T09:49:41.334Z,4424.00
2019-06-28T09:50:41.336Z,4664.00
2019-06-28T09:51:41.311Z,5488.00
2019-06-28T09:53:41.496Z,6628.00
2019-06-28T09:54:43.727Z,6484.00
2019-06-28T09:55:41.188Z,5748.00
2019-06-28T09:56:41.167Z,5804.00
2019-06-28T09:57:41.217Z,5920.00
2019-06-28T09:58:41.150Z,7480.00
2019-06-28T09:59:41.153Z,8424.00
2019-06-28T10:00:41.125Z,8400.00
2019-06-28T10:01:41.180Z,9136.00
2019-06-28T10:02:41.113Z,9884.00
2019-06-28T10:03:41.107Z,8408.00
2019-06-28T10:04:41.103Z,6556.00
2019-06-28T10:05:41.160Z,8388.00
2019-06-28T10:06:41.111Z,7444.00
2019-06-28T10:07:41.091Z,6140.00
2019-06-28T10:08:41.124Z,5492.00
2019-06-28T10:09:41.048Z,5092.00
2019-06-28T10:10:41.041Z,5168.00
2019-06-28T10:11:41.086Z,5144.00
2019-06-28T10:12:41.188Z,5108.00
2019-06-28T10:13:41.067Z,5180.00
2019-06-28T10:14:41.084Z,5260.00
2019-06-28T10:16:40.987Z,5648.00
2019-06-28T10:18:41.017Z,6572.00
2019-06-28T10:19:41.208Z,6508.00
2019-06-28T10:22:40.969Z,5920.00
2019-06-28T10:24:40.917Z,6628.00
2019-06-28T10:25:40.937Z,6348.00
2019-06-28T10:26:40.901Z,6184.00
2019-06-28T10:27:40.914Z,6376.00
2019-06-28T10:28:40.947Z,6740.00
2019-06-28T10:29:40.926Z,6868.00
2019-06-28T10:31:40.928Z,7232.00
2019-06-28T10:32:41.086Z,6884.00
2019-06-28T10:33:40.998Z,6640.00
2019-06-28T10:34:41.166Z,6812.00
2019-06-28T10:35:41.125Z,6928.00
2019-06-28T10:36:40.831Z,6364.00
2019-06-28T10:37:41.123Z,6348.00
2019-06-28T10:38:40.826Z,6476.00
2019-06-28T10:39:40.997Z,6444.00
2019-06-28T10:40:40.881Z,6616.00
2019-06-28T10:41:40.871Z,6680.00
2019-06-28T10:42:40.801Z,6744.00
2019-06-28T10:43:41.581Z,6772.00
2019-06-28T10:45:40.775Z,7120.00
2019-06-28T10:46:42.793Z,7204.00
2019-06-28T10:47:41.041Z,8040.00
2019-06-28T10:48:40.789Z,7704.00
2019-06-28T10:49:40.822Z,8712.00
2019-06-28T10:50:40.796Z,102976.00
2019-06-28T10:51:40.833Z,8044.00
2019-06-28T10:52:40.723Z,10944.00
2019-06-28T10:54:40.813Z,38880.00
2019-06-28T10:55:40.724Z,76768.00
2019-06-28T10:56:40.706Z,14368.00
2019-06-28T10:57:41.056Z,44704.00
2019-06-28T10:58:40.724Z,27168.00
2019-06-28T10:59:40.720Z,15136.00
2019-06-28T11:00:40.977Z,46624.00
2019-06-28T11:01:40.810Z,8896.00
2019-06-28T11:02:40.719Z,57728.00
2019-06-28T11:03:40.876Z,58624.00
2019-06-28T11:04:40.761Z,68768.00
2019-06-28T11:05:40.741Z,57824.00
2019-06-28T11:06:40.660Z,49856.00
2019-06-28T11:07:40.808Z,16096.00
2019-06-28T11:10:40.655Z,16832.00
2019-06-28T11:11:40.640Z,14496.00
2019-06-28T11:12:40.788Z,15072.00
2019-06-28T11:13:40.705Z,15200.00
2019-06-28T11:14:40.637Z,16256.00
2019-06-28T11:15:40.713Z,15328.00
2019-06-28T11:17:41.558Z,15488.00
2019-06-28T11:20:43.436Z,16032.00
2019-06-28T11:21:40.592Z,13344.00
2019-06-28T11:22:40.639Z,13376.00
2019-06-28T11:23:40.609Z,13792.00
2019-06-28T11:24:42.972Z,13984.00
2019-06-28T11:25:40.730Z,14464.00
2019-06-28T11:28:40.882Z,12512.00
2019-06-28T11:30:40.627Z,12928.00
2019-06-28T11:32:40.569Z,12480.00
2019-06-28T11:33:40.577Z,12288.00
2019-06-28T11:35:40.565Z,12256.00
2019-06-28T11:36:40.574Z,12064.00
2019-06-28T11:37:40.682Z,12000.00
2019-06-28T11:40:40.881Z,12032.00
2019-06-28T11:41:40.604Z,11744.00
2019-06-28T11:42:40.544Z,12160.00
2019-06-28T11:43:40.549Z,12480.00
2019-06-28T11:44:40.857Z,11968.00
2019-06-28T11:45:40.546Z,11872.00
2019-06-28T11:46:40.550Z,11648.00
2019-06-28T11:47:40.538Z,11808.00
2019-06-28T11:48:41.032Z,11744.00
2019-06-28T11:49:40.543Z,11744.00
2019-06-28T11:50:40.541Z,11376.00
2019-06-28T11:51:40.539Z,11248.00
2019-06-28T11:52:40.548Z,10912.00
2019-06-28T11:53:40.888Z,11072.00
2019-06-28T11:55:40.529Z,11260.00
2019-06-28T11:58:41.628Z,78880.00
2019-06-28T11:59:40.544Z,74464.00
2019-06-28T12:00:40.766Z,75360.00
2019-06-28T12:02:40.524Z,79616.00
2019-06-28T12:04:40.857Z,80096.00
2019-06-28T12:05:40.522Z,78144.00
2019-06-28T12:06:40.536Z,80128.00
2019-06-28T12:07:40.512Z,80064.00
2019-06-28T12:08:40.550Z,79904.00
2019-06-28T12:09:41.089Z,79136.00
2019-06-28T12:10:40.519Z,78624.00
2019-06-28T12:11:40.518Z,76896.00
2019-06-28T12:12:40.518Z,74624.00
2019-06-28T12:13:40.695Z,74240.00
2019-06-28T12:14:40.527Z,74816.00
2019-06-28T12:15:40.523Z,76416.00
2019-06-28T12:16:40.536Z,77952.00
2019-06-28T12:17:40.540Z,36032.00
2019-06-28T12:18:40.604Z,23200.00
2019-06-28T12:19:40.563Z,2144.00
2019-06-28T12:20:40.627Z,74304.00
2019-06-28T12:21:40.613Z,75264.00
2019-06-28T12:23:41.181Z,5984.00
2019-06-28T12:25:40.630Z,25760.00
2019-06-28T12:26:40.691Z,36928.00
2019-06-28T12:27:40.837Z,12320.00
2019-06-28T12:29:40.645Z,12224.00
2019-06-28T12:31:40.629Z,11304.00
2019-06-28T12:32:43.468Z,37472.00
2019-06-28T12:36:40.538Z,11504.00
2019-06-28T12:37:40.530Z,12032.00
2019-06-28T12:38:41.169Z,11192.00
2019-06-28T12:40:40.536Z,10316.00
2019-06-28T12:41:40.511Z,13920.00
2019-06-28T12:42:40.557Z,83232.00
2019-06-28T12:43:40.573Z,77344.00
2019-06-28T12:44:40.509Z,79520.00
2019-06-28T12:45:40.515Z,81088.00
2019-06-28T12:46:40.715Z,81568.00
2019-06-28T12:47:48.918Z,81728.00
2019-06-28T12:48:40.750Z,101024.00
2019-06-28T12:49:40.522Z,13344.00
2019-06-28T12:50:40.520Z,0.00
2019-06-28T12:52:40.645Z,79168.00
2019-06-28T12:53:40.518Z,80736.00
2019-06-28T12:55:41.081Z,11304.00
2019-06-28T12:56:40.554Z,75648.00
2019-06-28T12:58:40.535Z,63488.00
2019-06-28T12:59:40.960Z,29600.00
2019-06-28T13:01:40.658Z,12672.00
2019-06-28T13:02:40.541Z,12576.00
2019-06-28T13:03:40.517Z,13120.00
2019-06-28T13:04:40.517Z,12256.00
2019-06-28T13:05:40.970Z,72480.00
2019-06-28T13:07:40.527Z,74656.00
2019-06-28T13:08:40.528Z,76160.00
2019-06-28T13:09:40.537Z,0.00
2019-06-28T13:10:41.552Z,79104.00
2019-06-28T13:11:40.535Z,76576.00
2019-06-28T13:12:40.783Z,77472.00
2019-06-28T13:13:40.637Z,78624.00
2019-06-28T13:14:40.580Z,12640.00
2019-06-28T13:15:41.299Z,12032.00
2019-06-28T13:16:40.595Z,28512.00
2019-06-28T13:18:40.508Z,11776.00
2019-06-28T13:19:40.646Z,12384.00
2019-06-28T13:20:41.262Z,12064.00
2019-06-28T13:21:40.516Z,13120.00
2019-06-28T13:23:41.523Z,10628.00
2019-06-28T13:24:40.518Z,10424.00
2019-06-28T13:25:40.991Z,10676.00
2019-06-28T13:26:40.522Z,10708.00
2019-06-28T13:27:40.622Z,10436.00
2019-06-28T13:28:40.576Z,10284.00
2019-06-28T13:29:40.566Z,9644.00
2019-06-28T13:30:40.537Z,11340.00
2019-06-28T13:31:40.530Z,12704.00
2019-06-28T13:32:40.517Z,52256.00
2019-06-28T13:33:40.698Z,40608.00
2019-06-28T13:34:40.518Z,12480.00
2019-06-28T13:35:40.573Z,33344.00
2019-06-28T13:36:40.513Z,12512.00
2019-06-28T13:37:40.631Z,48800.00
2019-06-28T13:38:40.574Z,71360.00
2019-06-28T13:39:40.575Z,62432.00
2019-06-28T13:40:40.720Z,68096.00
2019-06-28T13:41:40.521Z,69152.00
2019-06-28T13:42:40.528Z,68352.00
2019-06-28T13:43:40.530Z,70496.00
2019-06-28T13:45:40.676Z,68832.00
2019-06-28T13:47:40.820Z,67424.00
2019-06-28T13:49:40.514Z,65600.00
2019-06-28T13:50:40.568Z,64640.00
2019-06-28T13:51:40.566Z,62624.00
2019-06-28T13:52:40.521Z,61888.00
2019-06-28T13:53:40.914Z,61664.00
2019-06-28T13:54:40.823Z,62688.00
2019-06-28T13:56:40.551Z,64608.00
2019-06-28T13:57:40.606Z,64000.00
2019-06-28T13:58:40.681Z,61792.00
2019-06-28T13:59:40.729Z,49824.00
2019-06-28T14:02:40.698Z,18720.00
2019-06-28T14:03:40.898Z,17856.00
2019-06-28T14:04:40.548Z,17536.00
2019-06-28T14:05:40.614Z,17600.00
2019-06-28T14:06:40.650Z,17344.00
2019-06-28T14:07:40.703Z,17440.00
2019-06-28T14:09:40.547Z,17536.00
2019-06-28T14:10:40.535Z,17696.00
2019-06-28T14:11:40.585Z,17984.00
2019-06-28T14:12:40.599Z,17600.00
2019-06-28T14:13:40.583Z,17504.00
2019-06-28T14:14:40.663Z,19296.00
2019-06-28T14:15:40.557Z,25248.00
2019-06-28T14:16:40.700Z,36704.00
2019-06-28T14:17:40.946Z,45408.00
2019-06-28T14:18:40.661Z,45728.00
2019-06-28T14:19:40.543Z,45056.00
2019-06-28T14:20:41.004Z,45664.00
2019-06-28T14:21:40.584Z,44576.00
2019-06-28T14:22:40.666Z,44224.00
2019-06-28T14:23:40.637Z,43264.00
2019-06-28T14:24:40.737Z,43712.00
2019-06-28T14:25:40.543Z,42880.00
2019-06-28T14:26:40.634Z,41280.00